Time;durP1;ratioP1;P1;durP2;ratioP2;P2;SDS_P1;SDS_P2;PMS_P1;PMS_P2;Temp;Humidity;BMP_temperature;BMP_pressure;BME280_temperature;BME280_humidity;BME280_pressure;Samples;Min_cycle;Max_cycle;Signal;HPM_P1;HPM_P2
2023/06/12 05:01:00;;;;;;;;;12.67;11.00;;;;;21.82;98.76;27691.06;5884521;22;46163;-77
2023/06/12 05:03:25;;;;;;;;;8.33;8.33;;;;;21.82;98.83;30083.88;4978457;28;46378;-77
2023/06/12 05:05:50;;;;;;;;;11.67;10.67;;;;;21.83;98.97;30116.41;4991478;28;45541;-78
2023/06/12 05:08:16;;;;;;;;;8.33;8.33;;;;;21.81;98.45;23390.44;4990458;28;45653;-77
2023/06/12 05:10:42;;;;;;;;;9.33;7.00;;;;;21.83;97.88;24269.63;4987444;28;45510;-78
2023/06/12 05:13:07;;;;;;;;;7.00;7.00;;;;;21.73;97.86;25473.31;4987289;28;46077;-78
2023/06/12 05:15:32;;;;;;;;;10.33;8.00;;;;;21.64;98.33;25144.59;4990149;28;45541;-79
2023/06/12 05:17:58;;;;;;;;;6.00;5.67;;;;;21.73;98.00;25366.84;4969777;28;45750;-80
2023/06/12 05:20:23;;;;;;;;;6.00;6.00;;;;;21.58;97.80;19299.41;4992357;28;45501;-78
2023/06/12 05:22:49;;;;;;;;;9.00;7.33;;;;;21.63;97.14;18514.53;4988289;28;47206;-79
2023/06/12 05:25:15;;;;;;;;;7.00;7.00;;;;;21.28;97.46;18821.03;4996773;28;45599;-79
2023/06/12 05:27:40;;;;;;;;;8.33;6.33;;;;;21.47;96.29;10728.47;4993026;28;45608;-79
2023/06/12 05:30:06;;;;;;;;;9.00;6.00;;;;;21.78;97.03;14407.81;4992140;28;45776;-78
2023/06/12 05:32:33;;;;;;;;;6.33;6.33;;;;;21.83;96.28;9471.44;4994366;28;46053;-78
2023/06/12 05:34:59;;;;;;;;;6.00;6.00;;;;;21.82;95.94;9166.19;4989787;28;45766;-79
2023/06/12 05:37:24;;;;;;;;;7.67;5.33;;;;;21.85;96.16;11524.91;4994175;28;47291;-80
2023/06/12 05:39:49;;;;;;;;;8.00;6.67;;;;;21.85;95.37;7443.69;4995669;28;45553;-81
2023/06/12 05:42:15;;;;;;;;;11.67;9.33;;;;;21.57;95.53;3477.72;4988051;28;46157;-79
2023/06/12 05:44:41;;;;;;;;;9.00;7.00;;;;;21.80;95.59;7273.19;4994383;28;45491;-79
2023/06/12 05:47:08;;;;;;;;;9.00;7.00;;;;;21.76;96.04;12453.84;4992439;28;45561;-79
2023/06/12 05:49:34;;;;;;;;;8.00;8.00;;;;;21.92;95.31;7641.06;4975129;28;45599;-79
2023/06/12 05:51:59;;;;;;;;;12.33;11.00;;;;;21.79;95.68;8285.56;4996274;28;46720;-80
2023/06/12 05:54:25;;;;;;;;;10.33;9.00;;;;;21.89;94.71;-5209.78;4977237;28;45576;-79
2023/06/12 05:56:50;;;;;;;;;7.33;6.00;;;;;21.79;94.74;1084.91;4994422;28;45354;-80
2023/06/12 05:59:16;;;;;;;;;9.67;6.33;;;;;21.63;94.86;3324.88;4977678;28;45771;-80
2023/06/12 06:01:41;;;;;;;;;9.00;6.33;;;;;22.06;95.18;3083.19;4977498;28;47531;-79
2023/06/12 06:04:10;;;;;;;;;8.33;8.00;;;;;21.54;94.40;1289.44;4995647;28;45419;-80
2023/06/12 06:06:36;;;;;;;;;7.67;6.67;;;;;22.02;94.57;3797.75;4974454;28;46072;-79
2023/06/12 06:09:03;;;;;;;;;11.67;9.33;;;;;22.11;95.06;7554.25;4995639;28;45532;-78
2023/06/12 06:11:28;;;;;;;;;9.33;7.67;;;;;22.13;95.91;11210.41;4976908;28;46125;-78
2023/06/12 06:13:54;;;;;;;;;8.00;7.00;;;;;22.06;94.63;-381.91;4995241;28;45672;-79
2023/06/12 06:16:19;;;;;;;;;8.00;8.00;;;;;22.18;94.22;-4882.88;4992884;28;45613;-79
2023/06/12 06:18:45;;;;;;;;;9.00;9.00;;;;;22.14;93.28;-9597.91;4993002;28;45546;-79
2023/06/12 06:21:11;;;;;;;;;9.67;7.00;;;;;22.20;93.51;-6687.91;4993678;28;46889;-80
2023/06/12 06:23:36;;;;;;;;;6.67;5.67;;;;;22.24;93.85;-4631.88;4991242;28;45521;-79
2023/06/12 06:26:03;;;;;;;;;9.00;6.33;;;;;22.25;93.24;-10969.13;4993986;28;45807;-79
2023/06/12 06:28:28;;;;;;;;;5.00;5.00;;;;;22.27;93.62;-5779.22;4992714;28;45458;-78
2023/06/12 06:30:54;;;;;;;;;7.00;6.00;;;;;22.09;92.74;-15347.59;4991313;28;47457;-79
2023/06/12 06:33:19;;;;;;;;;8.00;6.33;;;;;22.28;93.01;-10760.91;4992430;28;45559;-80
2023/06/12 06:35:45;;;;;;;;;9.00;9.00;;;;;22.14;92.83;-15145.59;4978615;28;45424;-80
2023/06/12 06:38:11;;;;;;;;;9.67;8.00;;;;;22.34;92.74;-15486.84;4996559;28;45930;-79
2023/06/12 06:40:36;;;;;;;;;6.33;6.33;;;;;22.35;92.73;-12002.31;4996309;28;45587;-79
2023/06/12 06:43:01;;;;;;;;;7.00;5.67;;;;;22.34;93.09;-10980.72;4997535;28;45492;-81
2023/06/12 06:45:27;;;;;;;;;7.67;5.00;;;;;21.53;93.13;-10298.59;4997154;28;45512;-79
2023/06/12 06:47:52;;;;;;;;;9.67;7.33;;;;;22.36;92.53;-16014.44;4996698;28;45529;-81
2023/06/12 06:50:18;;;;;;;;;9.00;6.00;;;;;22.01;92.13;-15688.63;4995968;28;45824;-81
2023/06/12 06:52:43;;;;;;;;;11.67;7.33;;;;;22.41;93.32;-9592.66;4995290;28;45908;-81
2023/06/12 06:55:09;;;;;;;;;6.33;6.33;;;;;22.45;92.49;-15256.91;4995961;28;45821;-81
2023/06/12 06:57:36;;;;;;;;;11.33;9.33;;;;;22.50;92.55;-13925.59;4996696;28;45444;-81
2023/06/12 07:00:05;;;;;;;;;11.33;8.67;;;;;22.38;91.39;-18900.81;4987041;28;47061;-81
2023/06/12 07:02:31;;;;;;;;;7.67;6.33;;;;;22.70;91.56;-19811.91;4996198;28;45539;-79
2023/06/12 07:04:56;;;;;;;;;12.00;7.67;;;;;22.77;92.03;-17320.56;4978035;28;45628;-93
2023/06/12 07:07:21;;;;;;;;;8.00;7.67;;;;;22.81;90.91;-19814.72;5000781;28;45531;-92
2023/06/12 07:09:46;;;;;;;;;9.67;9.00;;;;;22.82;90.91;-19815.09;4993221;28;45366;-90
2023/06/12 07:12:12;;;;;;;;;8.33;7.00;;;;;22.57;91.37;-19808.47;5061074;22;47647;-84
2023/06/12 07:14:38;;;;;;;;;9.00;8.00;;;;;22.39;90.14;-19803.94;5032155;28;45018;-90
2023/06/12 07:17:23;;;;;;;;;13.67;7.33;;;;;22.11;90.75;-19796.63;5009205;28;45060;-89
2023/06/12 07:20:10;;;;;;;;;8.67;7.33;;;;;22.55;91.18;-19808.06;5024375;28;46349;-89
2023/06/12 07:22:35;;;;;;;;;13.67;9.67;;;;;21.77;89.87;-19787.72;5017621;28;44964;-89
2023/06/12 07:25:08;;;;;;;;;8.67;7.67;;;;;22.17;90.56;-19798.22;5004908;28;45089;-90
2023/06/12 07:27:39;;;;;;;;;10.00;8.00;;;;;21.84;89.99;-19789.56;5033443;28;45056;-89
2023/06/12 07:30:06;;;;;;;;;7.67;7.67;;;;;22.35;89.79;-19802.88;5010937;28;47250;-89
2023/06/12 07:32:34;;;;;;;;;10.67;8.33;;;;;22.00;90.24;-19793.84;5008941;28;44898;-89
2023/06/12 07:35:00;;;;;;;;;5.33;5.33;;;;;22.51;90.18;-19807.13;5033021;28;44963;-89
2023/06/12 07:37:29;;;;;;;;;8.33;7.00;;;;;22.22;89.68;-19799.56;5028013;28;45229;-88
2023/06/12 07:39:57;;;;;;;;;7.33;6.67;;;;;22.31;89.65;-19801.81;5026603;28;45547;-91
2023/06/12 07:42:23;;;;;;;;;7.00;7.00;;;;;21.96;89.96;-19792.78;5034894;28;44997;-87
2023/06/12 07:44:51;;;;;;;;;11.00;8.00;;;;;22.95;89.19;-19818.56;5021574;28;45011;-86
2023/06/12 07:47:17;;;;;;;;;9.00;7.33;;;;;22.78;88.96;-19814.03;5014121;28;45116;-88
2023/06/12 07:49:42;;;;;;;;;6.33;6.33;;;;;22.63;89.02;-19810.06;5013141;28;46948;-89
2023/06/12 07:52:11;;;;;;;;;6.67;6.67;;;;;23.33;88.84;-19828.25;5034444;28;45505;-92
2023/06/12 07:54:42;;;;;;;;;10.33;9.00;;;;;22.85;88.01;-19815.78;5025052;28;45094;-89
2023/06/12 07:57:30;;;;;;;;;8.67;7.00;;;;;23.89;87.85;-19842.72;5034536;28;44993;-90
2023/06/12 07:59:55;;;;;;;;;6.00;6.00;;;;;23.53;86.79;-19833.44;5030594;28;46295;-89
2023/06/12 08:02:46;;;;;;;;;9.00;7.33;;;;;23.59;87.13;-19835.16;5009690;28;45244;-95
2023/06/12 08:05:14;;;;;;;;;7.00;7.00;;;;;23.58;85.65;-19834.91;5035248;28;46173;-93
2023/06/12 08:07:43;;;;;;;;;10.00;8.33;;;;;23.32;85.48;-19828.00;5032622;28;45143;-90
2023/06/12 08:10:11;;;;;;;;;7.00;7.00;;;;;23.88;86.06;-19842.47;5031947;28;45754;-91
2023/06/12 08:12:49;;;;;;;;;9.00;6.67;;;;;23.48;85.20;-19832.25;5017011;28;45077;-94
2023/06/12 08:15:21;;;;;;;;;7.33;7.33;;;;;23.71;84.53;-19838.09;5024851;28;44960;-90
2023/06/12 08:18:11;;;;;;;;;9.00;8.00;;;;;23.77;86.60;-19839.81;5000090;28;44931;-89
2023/06/12 08:20:38;;;;;;;;;7.00;7.00;;;;;24.44;84.81;-19857.19;5030420;28;45502;-90
2023/06/12 08:23:03;;;;;;;;;6.67;6.33;;;;;24.49;84.84;-19858.25;5035760;28;45194;-89
2023/06/12 08:25:28;;;;;;;;;9.00;8.00;;;;;24.00;84.50;-19845.66;5012268;28;44984;-91
2023/06/12 08:27:58;;;;;;;;;8.00;7.00;;;;;24.16;83.69;-19849.91;5032260;28;45001;-91
2023/06/12 08:30:27;;;;;;;;;7.00;7.00;;;;;23.79;84.80;-19840.34;5004457;28;47493;-91
2023/06/12 08:32:52;;;;;;;;;8.67;8.33;;;;;23.97;82.99;-19844.97;5026835;28;45050;-90
2023/06/12 08:35:17;;;;;;;;;8.00;6.00;;;;;24.26;81.15;-19852.41;5025303;28;44878;-91
2023/06/12 08:37:43;;;;;;;;;7.00;7.00;;;;;24.54;81.21;-19859.72;5011855;28;45036;-91
2023/06/12 08:40:11;;;;;;;;;13.00;8.00;;;;;24.17;81.01;-19850.16;5010585;28;47519;-89
2023/06/12 08:42:38;;;;;;;;;8.67;8.67;;;;;24.72;81.69;-19864.22;5025544;28;45058;-89
2023/06/12 08:45:09;;;;;;;;;5.67;5.67;;;;;25.30;80.98;-19879.19;5025723;28;45043;-90
2023/06/12 08:47:36;;;;;;;;;8.33;7.00;;;;;25.40;80.88;-19881.84;5029364;28;45067;-92
2023/06/12 08:50:02;;;;;;;;;8.33;7.00;;;;;24.90;80.24;-19868.84;5010837;28;47231;-92
2023/06/12 08:52:30;;;;;;;;;7.67;7.67;;;;;25.08;78.27;-19873.50;5022905;28;44906;-89
2023/06/12 08:54:58;;;;;;;;;11.67;9.00;;;;;24.87;78.96;-19868.06;5029922;28;45268;-91
2023/06/12 08:57:25;;;;;;;;;8.33;7.00;;;;;25.54;79.32;-19885.53;5033125;28;44891;-90
2023/06/12 08:59:50;;;;;;;;;9.33;8.67;;;;;25.70;79.88;-19889.78;5026730;28;45831;-90
2023/06/12 09:02:27;;;;;;;;;6.33;6.33;;;;;26.10;77.95;-19900.09;5004511;28;45344;-93
2023/06/12 09:05:02;;;;;;;;;10.00;7.00;;;;;26.31;77.75;-19905.38;5018491;28;44985;-91
2023/06/12 09:08:07;;;;;;;;;9.00;6.00;;;;;26.24;76.79;-19903.53;5027602;28;45128;-91
2023/06/12 09:10:40;;;;;;;;;8.00;8.00;;;;;26.21;76.22;-19902.88;4915874;28;45308;-90
2023/06/12 09:13:14;;;;;;;;;9.67;8.00;;;;;26.71;74.07;-19915.72;4922792;28;45066;-92
2023/06/12 09:15:55;;;;;;;;;9.00;7.33;;;;;27.06;74.81;-19924.81;4922019;28;44987;-93
2023/06/12 09:18:58;;;;;;;;;9.67;8.00;;;;;27.07;74.70;-19925.09;4916326;28;45141;-94
2023/06/12 09:24:22;;;;;;;;;11.67;10.00;;;;;27.04;71.57;-19924.16;4911741;28;45029;-94
2023/06/12 09:26:47;;;;;;;;;8.67;8.67;;;;;27.04;71.06;-19924.28;4919884;28;44987;-91
2023/06/12 09:29:12;;;;;;;;;10.00;9.00;;;;;27.23;70.12;-19929.06;4932632;28;45088;-91
2023/06/12 09:31:40;;;;;;;;;9.00;9.00;;;;;27.29;69.50;-19930.78;4902740;28;45530;-92
2023/06/12 09:34:06;;;;;;;;;11.67;9.67;;;;;27.79;68.71;-19943.56;4902164;29;46179;-85
2023/06/12 09:36:34;;;;;;;;;9.33;9.33;;;;;27.66;68.13;-19940.28;4916196;28;45155;-85
2023/06/12 09:39:00;;;;;;;;;9.00;9.00;;;;;27.48;68.37;-19935.53;4920297;28;45050;-84
2023/06/12 09:41:25;;;;;;;;;11.67;9.00;;;;;27.32;68.81;-19931.56;4914214;29;46399;-85
2023/06/12 09:43:52;;;;;;;;;12.00;10.33;;;;;27.09;68.84;-19925.47;4910246;28;45076;-84
2023/06/12 09:46:24;;;;;;;;;7.67;7.67;;;;;26.99;69.41;-19922.97;4985008;28;45014;-84
2023/06/12 09:48:55;;;;;;;;;10.00;9.00;;;;;26.68;70.01;-19915.03;5024025;28;45045;-84
2023/06/12 09:51:23;;;;;;;;;10.00;10.00;;;;;26.71;71.26;-19915.84;5032563;28;46555;-84
2023/06/12 09:53:50;;;;;;;;;9.00;9.00;;;;;26.35;70.57;-19906.44;5028657;28;45020;-84
2023/06/12 09:56:17;;;;;;;;;11.00;11.00;;;;;26.37;71.76;-19906.97;5026821;28;45458;-84
2023/06/12 09:58:47;;;;;;;;;12.67;12.67;;;;;26.52;70.88;-19910.94;5035801;28;45024;-85
2023/06/12 10:01:17;;;;;;;;;10.33;10.00;;;;;26.54;71.31;-19911.34;5030257;28;45030;-84
2023/06/12 10:03:44;;;;;;;;;10.33;10.33;;;;;26.57;72.03;-19912.00;5036300;28;45051;-85
2023/06/12 10:06:13;;;;;;;;;14.00;9.67;;;;;26.51;71.20;-19910.56;5039017;28;45274;-85
2023/06/12 10:08:39;;;;;;;;;17.33;12.00;;;;;26.64;71.55;-19914.00;5039082;28;45096;-85
2023/06/12 10:11:06;;;;;;;;;13.00;11.67;;;;;26.50;71.05;-19910.28;5029121;28;45537;-85
2023/06/12 10:13:34;;;;;;;;;13.00;13.00;;;;;26.67;70.86;-19914.66;5021191;28;44901;-85
2023/06/12 10:16:01;;;;;;;;;10.67;9.67;;;;;26.68;71.28;-19915.03;5026095;28;45081;-83
2023/06/12 10:18:28;;;;;;;;;12.00;11.33;;;;;26.60;70.84;-19912.78;5033228;28;44978;-85
2023/06/12 10:20:54;;;;;;;;;14.67;11.33;;;;;26.70;70.59;-19915.56;5036048;28;46271;-84
2023/06/12 10:23:21;;;;;;;;;12.67;12.67;;;;;26.60;70.48;-19912.94;5034604;28;45078;-84
2023/06/12 10:25:49;;;;;;;;;17.33;14.33;;;;;26.58;70.31;-19912.28;5029456;28;44912;-85
2023/06/12 10:28:15;;;;;;;;;12.33;11.67;;;;;26.71;70.48;-19915.72;5038888;28;45254;-84
2023/06/12 10:31:13;;;;;;;;;17.00;13.67;;;;;26.68;69.93;-19915.03;5038107;28;45913;-85
2023/06/12 10:33:58;;;;;;;;;17.33;14.33;;;;;26.62;71.99;-19913.47;5029121;28;44954;-85
2023/06/12 10:36:23;;;;;;;;;13.33;13.33;;;;;26.56;70.99;-19911.88;5034996;28;44964;-84
2023/06/12 10:38:49;;;;;;;;;14.00;12.33;;;;;26.50;71.91;-19910.28;5039917;28;44930;-84
2023/06/12 10:41:31;;;;;;;;;14.67;13.00;;;;;26.40;71.50;-19907.78;5037639;28;46291;-84
2023/06/12 10:43:57;;;;;;;;;10.00;10.00;;;;;26.28;70.90;-19904.72;5026676;28;44968;-84
2023/06/12 10:46:22;;;;;;;;;14.00;12.67;;;;;26.33;71.95;-19905.91;5023818;28;44979;-83
2023/06/12 10:48:48;;;;;;;;;15.67;13.00;;;;;26.18;72.58;-19902.09;5034248;28;44918;-86
2023/06/12 10:51:13;;;;;;;;;13.33;12.00;;;;;26.01;72.24;-19897.72;5037344;28;46237;-88
2023/06/12 10:53:46;;;;;;;;;13.00;13.00;;;;;26.27;72.02;-19904.47;5020899;28;44942;-89
2023/06/12 10:56:12;;;;;;;;;13.67;10.33;;;;;26.25;72.11;-19903.81;5038919;28;45024;-85
2023/06/12 10:58:41;;;;;;;;;15.00;14.67;;;;;26.19;72.55;-19902.22;5038728;28;45074;-87
2023/06/12 11:01:15;;;;;;;;;12.33;12.33;;;;;26.25;72.08;-19903.81;5031835;28;46178;-86
2023/06/12 11:03:42;;;;;;;;;13.00;13.00;;;;;26.22;72.26;-19903.00;5023558;28;45072;-87
2023/06/12 11:06:15;;;;;;;;;12.00;12.00;;;;;26.16;73.47;-19901.44;5028640;28;44926;-87
2023/06/12 11:08:42;;;;;;;;;13.67;13.67;;;;;26.15;72.49;-19901.28;5041536;28;44944;-89
2023/06/12 11:11:09;;;;;;;;;14.67;14.67;;;;;25.74;74.93;-19890.72;5036453;28;45619;-87
2023/06/12 11:13:39;;;;;;;;;13.00;11.67;;;;;25.96;73.28;-19896.25;5029938;28;44925;-87
2023/06/12 11:16:04;;;;;;;;;12.67;12.67;;;;;25.97;72.50;-19896.66;5035341;28;45089;-86
2023/06/12 11:18:29;;;;;;;;;15.00;13.00;;;;;25.51;73.17;-19884.63;5033683;28;44891;-86
2023/06/12 11:20:56;;;;;;;;;13.33;12.33;;;;;26.07;73.26;-19899.19;5036264;28;45343;-86
2023/06/12 11:23:27;;;;;;;;;15.33;13.33;;;;;25.99;73.28;-19897.06;5036420;28;45131;-86
2023/06/12 11:25:54;;;;;;;;;11.33;11.33;;;;;26.05;74.31;-19898.66;5035036;28;45139;-86
2023/06/12 11:28:20;;;;;;;;;15.00;14.00;;;;;26.05;73.89;-19898.66;5036414;28;44889;-85
2023/06/12 11:30:50;;;;;;;;;15.67;14.33;;;;;26.02;73.68;-19898.00;5036576;28;45615;-86
2023/06/12 11:33:17;;;;;;;;;14.00;12.00;;;;;26.02;73.10;-19898.00;5030446;28;45040;-86
2023/06/12 11:35:51;;;;;;;;;19.00;14.00;;;;;25.74;73.10;-19890.56;5034855;28;45106;-88
2023/06/12 11:38:21;;;;;;;;;13.00;13.00;;;;;25.91;73.21;-19895.06;5031091;28;44902;-89
2023/06/12 11:40:48;;;;;;;;;16.33;16.33;;;;;26.05;73.48;-19898.66;5032265;28;45609;-89
2023/06/12 11:43:22;;;;;;;;;11.33;11.33;;;;;26.17;73.62;-19901.69;5037063;28;44864;-91
2023/06/12 11:45:49;;;;;;;;;16.00;12.67;;;;;26.16;73.98;-19901.44;5034915;28;44910;-90
2023/06/12 11:48:16;;;;;;;;;14.00;14.00;;;;;26.21;73.40;-19902.88;5036384;28;44873;-90
2023/06/12 11:50:45;;;;;;;;;16.00;15.33;;;;;26.19;73.13;-19902.34;5036851;28;46755;-90
2023/06/12 11:53:14;;;;;;;;;16.00;15.00;;;;;26.00;73.00;-19897.31;5036445;28;44913;-89
2023/06/12 11:55:40;;;;;;;;;19.00;17.00;;;;;26.24;73.81;-19903.66;5037637;28;44886;-88
2023/06/12 11:58:05;;;;;;;;;18.33;16.67;;;;;26.25;73.16;-19903.94;5036735;28;45092;-89
2023/06/12 12:00:34;;;;;;;;;15.33;14.33;;;;;26.12;73.58;-19900.50;5017988;28;47197;-91
2023/06/12 12:03:02;;;;;;;;;19.00;15.00;;;;;26.20;73.54;-19902.47;5028014;28;45040;-87
2023/06/12 12:05:34;;;;;;;;;12.33;12.33;;;;;26.10;73.37;-19900.09;5025924;28;45141;-84
2023/06/12 12:08:03;;;;;;;;;15.33;14.00;;;;;26.02;74.60;-19897.84;5034109;28;44994;-88
2023/06/12 12:10:30;;;;;;;;;15.67;15.67;;;;;26.02;73.65;-19897.84;5034081;28;45818;-87
2023/06/12 12:13:00;;;;;;;;;22.00;16.00;;;;;25.98;74.64;-19896.78;5038165;28;44940;-91
2023/06/12 12:15:28;;;;;;;;;17.67;15.67;;;;;25.92;74.87;-19895.22;5026885;28;44961;-94
2023/06/12 12:17:54;;;;;;;;;18.67;17.00;;;;;25.98;75.88;-19896.78;5037462;28;44858;-91
2023/06/12 12:20:22;;;;;;;;;17.33;16.00;;;;;26.06;75.81;-19899.03;5033601;28;45981;-92
2023/06/12 12:22:50;;;;;;;;;22.00;17.33;;;;;26.14;75.38;-19900.91;5023330;28;44915;-93
2023/06/12 12:25:21;;;;;;;;;18.00;15.33;;;;;25.98;75.49;-19896.78;5023515;28;45087;-93
2023/06/12 12:27:49;;;;;;;;;15.33;14.00;;;;;26.24;75.39;-19903.53;5032442;28;45059;-91
2023/06/12 12:30:15;;;;;;;;;17.00;17.00;;;;;26.16;75.55;-19901.44;5028098;28;46722;-91
2023/06/12 12:32:45;;;;;;;;;16.00;15.00;;;;;25.68;74.56;-19889.13;5030768;28;45482;-93
2023/06/12 12:35:12;;;;;;;;;16.00;15.00;;;;;25.59;74.87;-19886.88;5021150;28;44980;-90
2023/06/12 12:37:37;;;;;;;;;16.67;15.67;;;;;26.25;74.82;-19903.81;5024926;28;45010;-96
2023/06/12 12:40:08;;;;;;;;;16.00;15.00;;;;;26.19;74.56;-19902.22;5033055;28;45879;-95
2023/06/12 12:42:34;;;;;;;;;15.33;14.00;;;;;26.73;74.72;-19916.22;5031831;28;45011;-91
2023/06/12 12:44:59;;;;;;;;;18.00;16.67;;;;;26.80;74.51;-19918.09;5009049;28;45144;-88
2023/06/12 12:47:25;;;;;;;;;17.67;17.00;;;;;26.86;75.24;-19919.66;5027463;28;45161;-84
2023/06/12 12:49:51;;;;;;;;;17.00;15.33;;;;;26.98;74.20;-19922.72;5025620;28;45229;-84
2023/06/12 12:52:16;;;;;;;;;18.33;17.00;;;;;27.01;74.59;-19923.38;5025839;28;44886;-84
2023/06/12 12:54:41;;;;;;;;;18.67;17.33;;;;;27.20;73.86;-19928.38;5024727;28;45017;-84
2023/06/12 12:57:08;;;;;;;;;17.67;15.00;;;;;27.30;72.88;-19930.91;5030311;28;45052;-83
2023/06/12 12:59:34;;;;;;;;;10.67;10.67;;;;;27.41;72.26;-19933.69;5024711;28;46128;-84
2023/06/12 13:01:59;;;;;;;;;16.67;14.00;;;;;27.45;73.43;-19934.88;5031500;28;45031;-84
2023/06/12 13:04:25;;;;;;;;;13.00;12.33;;;;;27.52;73.03;-19936.72;5008549;28;45242;-84
2023/06/12 13:06:51;;;;;;;;;15.67;13.33;;;;;27.35;73.18;-19932.22;5027759;28;44974;-84
2023/06/12 13:09:17;;;;;;;;;14.67;11.33;;;;;27.70;72.31;-19941.19;5027899;28;45138;-83
2023/06/12 13:11:42;;;;;;;;;14.67;13.67;;;;;27.46;72.15;-19935.13;5024415;28;45036;-83
2023/06/12 13:14:08;;;;;;;;;16.67;14.67;;;;;27.83;71.87;-19944.50;5031598;28;46197;-83
2023/06/12 13:16:34;;;;;;;;;13.00;13.00;;;;;27.69;70.89;-19940.94;5027057;28;44977;-82
2023/06/12 13:19:00;;;;;;;;;16.00;16.00;;;;;27.91;70.86;-19946.75;5029261;28;45601;-84
2023/06/12 13:21:25;;;;;;;;;14.67;14.00;;;;;27.78;71.03;-19943.31;5026590;28;44827;-85
2023/06/12 13:23:51;;;;;;;;;14.33;14.33;;;;;27.54;70.72;-19937.25;5022985;28;45128;-83
2023/06/12 13:26:16;;;;;;;;;12.00;12.00;;;;;27.76;69.47;-19942.78;5031140;28;45102;-85
2023/06/12 13:28:41;;;;;;;;;12.00;12.00;;;;;27.84;69.04;-19944.91;5020699;28;61863;-84
2023/06/12 13:31:06;;;;;;;;;12.00;11.00;;;;;27.87;68.40;-19945.56;5029252;28;44973;-84
2023/06/12 13:33:32;;;;;;;;;12.33;12.33;;;;;28.05;68.46;-19950.31;5017372;28;46078;-83
2023/06/12 13:35:57;;;;;;;;;12.33;12.33;;;;;28.04;68.68;-19950.03;5032505;28;45101;-84
2023/06/12 13:38:23;;;;;;;;;14.67;12.67;;;;;28.30;68.12;-19956.63;5030861;28;45250;-83
2023/06/12 13:40:50;;;;;;;;;13.33;10.67;;;;;27.61;68.00;-19938.81;5027955;28;45021;-83
2023/06/12 13:43:16;;;;;;;;;14.00;12.33;;;;;27.96;67.33;-19947.94;5026136;28;45017;-84
2023/06/12 13:45:41;;;;;;;;;12.33;11.33;;;;;28.33;67.25;-19957.56;5019278;28;45107;-84
2023/06/12 13:48:07;;;;;;;;;12.00;10.00;;;;;28.51;66.89;-19962.16;5028210;28;46811;-86
2023/06/12 13:50:32;;;;;;;;;10.33;10.33;;;;;28.55;67.13;-19963.09;5032573;28;45378;-86
2023/06/12 13:52:57;;;;;;;;;10.67;10.67;;;;;28.58;67.05;-19964.00;5022884;28;45367;-87
2023/06/12 13:55:23;;;;;;;;;15.33;12.00;;;;;28.61;66.32;-19964.81;5032624;28;45022;-84
2023/06/12 13:57:48;;;;;;;;;14.67;13.00;;;;;28.51;66.25;-19962.03;5023070;28;45272;-85
2023/06/12 14:00:14;;;;;;;;;10.00;10.00;;;;;28.74;66.07;-19968.09;5036455;28;44964;-88
2023/06/12 14:02:40;;;;;;;;;13.00;11.33;;;;;28.78;66.20;-19969.16;5022870;28;45084;-86
2023/06/12 14:05:06;;;;;;;;;14.00;12.67;;;;;28.80;65.68;-19969.56;5032252;28;46098;-91
2023/06/12 14:07:32;;;;;;;;;13.00;13.00;;;;;28.87;65.38;-19971.25;5033389;28;45220;-90
2023/06/12 14:09:59;;;;;;;;;13.67;12.67;;;;;28.90;65.07;-19972.06;5030093;28;44938;-88
2023/06/12 14:12:24;;;;;;;;;14.33;13.00;;;;;28.88;64.77;-19971.53;5025709;28;44983;-89
2023/06/12 14:14:50;;;;;;;;;13.67;12.00;;;;;28.90;64.39;-19972.19;5036941;28;45093;-93
2023/06/12 14:17:16;;;;;;;;;14.33;13.33;;;;;29.06;64.41;-19976.28;5012690;28;47614;-90
2023/06/12 14:19:41;;;;;;;;;13.33;12.00;;;;;29.12;64.57;-19977.72;5030299;28;45054;-89
2023/06/12 14:22:07;;;;;;;;;10.33;10.33;;;;;29.15;64.15;-19978.66;5025989;28;50413;-88
2023/06/12 14:24:32;;;;;;;;;12.67;11.33;;;;;29.17;63.88;-19979.16;5030393;28;45017;-91
2023/06/12 14:26:57;;;;;;;;;13.00;11.33;;;;;29.19;64.00;-19979.56;5032016;28;45749;-90
2023/06/12 14:29:23;;;;;;;;;12.33;11.00;;;;;29.03;63.59;-19975.47;5030270;28;44907;-89
2023/06/12 14:31:48;;;;;;;;;12.33;11.33;;;;;29.10;63.43;-19977.31;5032363;28;45004;-89
2023/06/12 14:34:13;;;;;;;;;10.67;10.67;;;;;29.21;63.47;-19980.22;5029381;28;45388;-93
2023/06/12 14:36:39;;;;;;;;;12.33;12.33;;;;;29.23;63.57;-19980.63;5022525;28;45907;-91
2023/06/12 14:39:05;;;;;;;;;11.00;9.33;;;;;29.24;63.51;-19980.88;5029846;28;45048;-87
2023/06/12 14:41:30;;;;;;;;;11.67;11.00;;;;;29.24;63.19;-19981.00;5028494;28;45131;-90
2023/06/12 14:43:57;;;;;;;;;15.00;11.00;;;;;29.24;62.73;-19980.88;5028986;28;45457;-91
2023/06/12 14:46:23;;;;;;;;;10.67;10.33;;;;;29.04;62.96;-19975.88;5025510;28;46126;-88
2023/06/12 14:48:48;;;;;;;;;14.00;13.00;;;;;28.96;62.95;-19973.78;5022315;28;45047;-87
2023/06/12 14:51:14;;;;;;;;;12.67;11.67;;;;;29.16;62.63;-19978.91;5032627;28;45051;-86
2023/06/12 14:53:39;;;;;;;;;13.67;11.33;;;;;28.79;62.79;-19969.41;5016689;28;45070;-85
2023/06/12 14:56:05;;;;;;;;;11.00;11.00;;;;;28.74;63.03;-19968.09;5029288;28;45713;-87
2023/06/12 14:58:30;;;;;;;;;11.33;11.33;;;;;28.72;63.01;-19967.56;5008176;28;45338;-88
2023/06/12 15:00:56;;;;;;;;;9.33;8.67;;;;;28.87;63.09;-19971.41;5025658;28;45127;-88
2023/06/12 15:03:23;;;;;;;;;9.00;8.67;;;;;28.22;62.86;-19954.66;5010777;28;45175;-89
2023/06/12 15:05:48;;;;;;;;;9.33;9.33;;;;;28.93;63.25;-19972.84;5024007;28;46751;-87
2023/06/12 15:08:14;;;;;;;;;11.33;11.33;;;;;28.86;63.14;-19971.00;5035748;28;45053;-91
2023/06/12 15:10:39;;;;;;;;;12.33;12.33;;;;;28.83;63.90;-19970.34;5032337;28;45189;-90
2023/06/12 15:13:04;;;;;;;;;9.00;9.00;;;;;28.79;63.87;-19969.28;5034551;28;44893;-88
2023/06/12 15:15:30;;;;;;;;;12.33;12.33;;;;;28.72;64.00;-19967.56;5028405;28;46096;-87
2023/06/12 15:17:58;;;;;;;;;10.33;10.33;;;;;28.53;63.85;-19962.56;5033129;28;44959;-91
2023/06/12 15:20:29;;;;;;;;;12.00;11.00;;;;;28.23;64.22;-19954.91;5029938;28;45144;-95
2023/06/12 15:23:18;;;;;;;;;12.33;11.00;;;;;27.79;64.80;-19943.56;5024188;28;44997;-94
2023/06/12 15:25:43;;;;;;;;;15.00;12.33;;;;;27.93;64.72;-19947.28;5000094;28;47406;-96
2023/06/12 15:28:09;;;;;;;;;10.67;9.33;;;;;27.78;64.62;-19943.31;5014819;28;45087;-93
2023/06/12 15:30:34;;;;;;;;;12.67;12.00;;;;;28.43;64.92;-19960.06;5036907;28;45063;-91
2023/06/12 15:32:59;;;;;;;;;11.00;10.00;;;;;27.80;65.03;-19943.84;5031875;28;45018;-93
2023/06/12 15:35:28;;;;;;;;;11.00;11.00;;;;;28.22;65.05;-19954.66;5016433;28;46659;-92
2023/06/12 15:40:27;;;;;;;;;13.33;11.00;;;;;28.66;64.92;-19966.00;5042997;22;67628;-85
2023/06/12 15:42:53;;;;;;;;;10.67;10.67;;;;;28.66;65.06;-19966.00;5020052;28;45555;-84
2023/06/12 15:45:18;;;;;;;;;10.67;10.33;;;;;28.68;64.96;-19966.38;5030425;28;45558;-80
2023/06/12 15:47:43;;;;;;;;;9.33;9.33;;;;;28.55;64.93;-19963.22;5026838;28;47583;-85
2023/06/12 15:50:09;;;;;;;;;13.00;12.00;;;;;28.30;65.11;-19956.63;5022202;28;45678;-85
2023/06/12 15:52:34;;;;;;;;;14.33;13.33;;;;;28.45;65.58;-19960.59;5019566;28;45564;-88
2023/06/12 15:55:00;;;;;;;;;11.67;11.67;;;;;28.59;65.12;-19964.16;5029226;28;47128;-84
2023/06/12 15:57:25;;;;;;;;;11.33;11.33;;;;;28.25;65.08;-19955.31;5008372;28;45907;-79
2023/06/12 15:59:50;;;;;;;;;11.00;9.33;;;;;28.06;65.55;-19950.44;5029195;28;46627;-90
2023/06/12 16:02:16;;;;;;;;;15.00;13.33;;;;;28.51;65.31;-19962.03;5027227;28;45601;-85
2023/06/12 16:04:41;;;;;;;;;14.33;12.00;;;;;28.50;65.07;-19961.78;5031013;28;47308;-86
2023/06/12 16:07:07;;;;;;;;;11.33;11.33;;;;;27.21;65.14;-19928.53;5030156;28;45755;-82
2023/06/12 16:09:32;;;;;;;;;12.00;11.00;;;;;28.47;65.55;-19961.13;5014448;28;45732;-80
2023/06/12 16:11:57;;;;;;;;;9.33;9.33;;;;;28.02;65.80;-19949.50;5014274;28;45446;-80
2023/06/12 16:14:23;;;;;;;;;13.00;12.33;;;;;28.40;65.65;-19959.41;5025897;28;46194;-82
2023/06/12 16:16:49;;;;;;;;;11.67;11.67;;;;;28.46;65.87;-19960.72;5012343;28;45607;-85
2023/06/12 16:19:14;;;;;;;;;10.33;9.00;;;;;28.39;65.72;-19959.00;5010438;28;45728;-82
2023/06/12 16:21:40;;;;;;;;;10.67;9.33;;;;;28.09;66.08;-19951.34;5032666;28;45532;-76
2023/06/12 16:24:05;;;;;;;;;10.67;10.33;;;;;28.40;65.58;-19959.25;5030312;28;46221;-80